createdAt,value
2022-08-24T00:00:48.543Z,41.08
2022-08-24T00:01:50.631Z,46.58
2022-08-24T00:02:53.063Z,43.03
2022-08-24T00:03:57.788Z,39.83
2022-08-24T00:05:01.843Z,39.88
2022-08-24T00:06:06.397Z,42.53
2022-08-24T00:07:15.897Z,43.88
2022-08-24T00:08:29.496Z,35.85
2022-08-24T00:09:35.029Z,42.70
2022-08-24T00:10:37.283Z,42.85
2022-08-24T00:11:39.266Z,40.72
2022-08-24T00:12:41.495Z,43.55
2022-08-24T00:13:44.706Z,38.42
2022-08-24T00:14:46.766Z,43.15
2022-08-24T00:15:52.141Z,41.53
2022-08-24T00:16:54.949Z,40.92
2022-08-24T00:17:57.311Z,41.08
2022-08-24T00:19:00.797Z,40.22
2022-08-24T00:20:03.478Z,41.95
2022-08-24T00:21:06.549Z,46.90
2022-08-24T00:22:10.207Z,41.08
2022-08-24T00:23:12.256Z,40.42
2022-08-24T00:24:14.882Z,41.25
2022-08-24T00:25:17.630Z,48.58
2022-08-24T00:26:29.266Z,39.90
2022-08-24T00:27:31.481Z,43.65
2022-08-24T00:28:34.419Z,46.40
2022-08-24T00:29:36.523Z,44.10
2022-08-24T00:30:38.884Z,46.35
2022-08-24T00:31:41.089Z,47.58
2022-08-24T00:32:45.453Z,41.13
2022-08-24T00:33:48.251Z,43.13
2022-08-24T00:34:58.316Z,48.03
2022-08-24T00:36:01.527Z,48.35
2022-08-24T00:37:04.552Z,47.25
2022-08-24T00:38:07.248Z,53.22
2022-08-24T00:39:09.541Z,45.38
2022-08-24T00:40:19.466Z,46.13
2022-08-24T00:41:22.677Z,41.83
2022-08-24T00:42:25.386Z,50.75
2022-08-24T00:43:28.959Z,44.00
2022-08-24T00:44:31.273Z,50.25
2022-08-24T00:45:48.801Z,45.97
2022-08-24T00:46:59.878Z,46.85
2022-08-24T00:48:12.152Z,48.45
2022-08-24T00:49:20.616Z,45.75
2022-08-24T00:50:27.364Z,48.05
2022-08-24T00:51:36.309Z,51.53
2022-08-24T00:52:46.696Z,44.75
2022-08-24T00:53:53.680Z,50.47
2022-08-24T00:55:00.844Z,46.83
2022-08-24T00:56:09.300Z,44.33
2022-08-24T00:57:13.811Z,52.20
2022-08-24T00:58:31.899Z,44.15
2022-08-24T00:59:39.260Z,48.28
2022-08-24T01:00:45.522Z,50.28
2022-08-24T01:01:52.229Z,49.15
2022-08-24T01:02:59.730Z,54.50
2022-08-24T01:04:03.372Z,52.55
2022-08-24T01:05:08.818Z,53.63
2022-08-24T01:06:12.692Z,49.15
2022-08-24T01:07:15.325Z,52.60
2022-08-24T01:08:17.530Z,58.72
2022-08-24T01:09:19.775Z,53.85
2022-08-24T01:10:26.300Z,51.45
2022-08-24T01:11:33.756Z,51.72
2022-08-24T01:12:39.577Z,50.80
2022-08-24T01:13:46.070Z,55.20
2022-08-24T01:14:48.700Z,51.97
2022-08-24T01:15:58.158Z,54.42
2022-08-24T01:17:18.945Z,50.65
2022-08-24T01:18:42.571Z,56.03
2022-08-24T01:19:49.239Z,54.08
2022-08-24T01:21:06.199Z,59.40
2022-08-24T01:22:25.964Z,49.83
2022-08-24T01:23:49.471Z,55.80
2022-08-24T01:24:54.055Z,59.72
2022-08-24T01:25:56.529Z,60.40
2022-08-24T01:27:02.921Z,60.42
2022-08-24T01:28:10.558Z,60.90
2022-08-24T01:29:29.235Z,60.78
2022-08-24T01:30:36.175Z,56.65
2022-08-24T01:31:39.611Z,61.35
2022-08-24T01:32:52.671Z,66.13
2022-08-24T01:33:55.881Z,56.85
2022-08-24T01:34:58.661Z,70.13
2022-08-24T01:36:08.819Z,64.68
2022-08-24T01:37:11.747Z,61.17
2022-08-24T01:38:16.857Z,61.35
2022-08-24T01:39:54.379Z,65.13
2022-08-24T01:41:01.991Z,63.15
2022-08-24T01:42:05.145Z,63.40
2022-08-24T01:43:11.156Z,73.68
2022-08-24T01:44:14.193Z,66.90
2022-08-24T01:45:16.941Z,69.03
2022-08-24T01:46:19.034Z,65.10
2022-08-24T01:47:21.156Z,62.90
2022-08-24T01:48:23.639Z,67.68
2022-08-24T01:49:31.419Z,63.85
2022-08-24T01:50:35.114Z,71.00
2022-08-24T01:51:37.239Z,65.65
2022-08-24T01:53:03.796Z,72.50
2022-08-24T01:54:06.065Z,72.65
2022-08-24T01:55:10.691Z,69.00
2022-08-24T01:56:13.268Z,73.80
2022-08-24T01:57:17.078Z,67.75
2022-08-24T01:58:20.633Z,64.82
2022-08-24T01:59:23.089Z,71.60
2022-08-24T02:00:26.236Z,68.78
2022-08-24T02:01:30.812Z,72.50
2022-08-24T02:02:33.283Z,61.42
2022-08-24T02:03:35.347Z,67.88
2022-08-24T02:04:37.864Z,69.82
2022-08-24T02:05:41.353Z,66.43
2022-08-24T02:06:46.398Z,68.82
2022-08-24T02:07:51.039Z,68.40
2022-08-24T02:08:53.257Z,66.00
2022-08-24T02:09:55.365Z,73.85
2022-08-24T02:10:57.465Z,65.28
2022-08-24T02:12:00.537Z,68.22
2022-08-24T02:13:03.191Z,68.70
2022-08-24T02:14:06.156Z,67.65
2022-08-24T02:15:09.637Z,67.88
2022-08-24T02:16:12.379Z,73.53
2022-08-24T02:17:14.505Z,74.68
2022-08-24T02:18:16.583Z,66.60
2022-08-24T02:19:19.358Z,66.25
2022-08-24T02:20:21.983Z,70.75
2022-08-24T02:21:25.809Z,66.78
2022-08-24T02:22:28.164Z,72.72
2022-08-24T02:23:31.455Z,68.82
2022-08-24T02:24:35.753Z,73.15
2022-08-24T02:25:38.289Z,77.75
2022-08-24T02:26:40.890Z,69.63
2022-08-24T02:27:45.909Z,76.28
2022-08-24T02:28:48.902Z,71.78
2022-08-24T02:29:50.939Z,78.25
2022-08-24T02:30:53.781Z,73.95
2022-08-24T02:31:57.868Z,78.45
2022-08-24T02:33:00.485Z,70.13
2022-08-24T02:34:03.128Z,78.38
2022-08-24T02:35:06.067Z,66.97
2022-08-24T02:36:25.842Z,72.30
2022-08-24T02:37:31.691Z,67.13
2022-08-24T02:38:34.518Z,68.60
2022-08-24T02:39:44.176Z,72.65
2022-08-24T02:40:50.325Z,72.28
2022-08-24T02:41:53.071Z,63.20
2022-08-24T02:42:55.912Z,70.90
2022-08-24T02:43:59.803Z,67.07
2022-08-24T02:45:04.263Z,71.72
2022-08-24T02:46:17.963Z,71.28
2022-08-24T02:47:20.413Z,68.88
2022-08-24T02:48:22.704Z,74.18
2022-08-24T02:49:26.767Z,69.22
2022-08-24T02:50:29.225Z,69.53
2022-08-24T02:51:42.259Z,74.43
2022-08-24T02:52:47.844Z,76.32
2022-08-24T02:53:50.537Z,66.30
2022-08-24T02:54:52.848Z,71.93
2022-08-24T02:55:55.335Z,72.10
2022-08-24T02:56:57.691Z,70.05
2022-08-24T02:58:01.078Z,66.00
2022-08-24T02:59:03.986Z,73.50
2022-08-24T03:00:10.588Z,69.20
2022-08-24T03:01:23.940Z,72.40
2022-08-24T03:02:32.427Z,74.97
2022-08-24T03:03:34.757Z,71.88
2022-08-24T03:04:36.975Z,69.93
2022-08-24T03:05:39.924Z,71.75
2022-08-24T03:06:44.820Z,70.05
2022-08-24T03:07:47.249Z,71.40
2022-08-24T03:08:54.700Z,64.00
2022-08-24T03:09:59.074Z,65.35
2022-08-24T03:11:01.528Z,64.82
2022-08-24T03:12:04.178Z,65.72
2022-08-24T03:13:07.874Z,71.82
2022-08-24T03:14:10.459Z,65.32
2022-08-24T03:15:13.480Z,63.53
2022-08-24T03:16:19.095Z,71.50
2022-08-24T03:17:21.476Z,75.28
2022-08-24T03:18:26.024Z,65.82
2022-08-24T03:19:28.695Z,67.18
2022-08-24T03:20:31.287Z,64.20
2022-08-24T03:21:33.854Z,69.82
2022-08-24T03:22:36.136Z,69.88
2022-08-24T03:23:38.176Z,64.80
2022-08-24T03:24:40.251Z,65.63
2022-08-24T03:25:42.375Z,65.25
2022-08-24T03:26:44.802Z,61.20
2022-08-24T03:27:48.178Z,65.65
2022-08-24T03:28:50.963Z,67.47
2022-08-24T03:29:54.180Z,65.32
2022-08-24T03:30:56.860Z,65.00
2022-08-24T03:31:59.724Z,63.85
2022-08-24T03:33:02.259Z,68.78
2022-08-24T03:34:05.246Z,67.10
2022-08-24T03:35:08.288Z,71.05
2022-08-24T03:36:14.103Z,62.67
2022-08-24T03:37:16.966Z,68.25
2022-08-24T03:38:19.778Z,64.25
2022-08-24T03:39:21.936Z,65.18
2022-08-24T03:40:28.630Z,64.80
2022-08-24T03:41:32.319Z,71.47
2022-08-24T03:42:39.826Z,65.80
2022-08-24T03:43:49.174Z,63.80
2022-08-24T03:44:53.765Z,57.45
2022-08-24T03:45:55.970Z,62.53
2022-08-24T03:47:03.961Z,57.80
2022-08-24T03:48:06.649Z,70.03
2022-08-24T03:49:10.528Z,60.63
2022-08-24T03:50:14.003Z,57.70
2022-08-24T03:51:20.138Z,66.68
2022-08-24T03:52:24.737Z,64.15
2022-08-24T03:53:28.286Z,63.05
2022-08-24T03:54:33.986Z,57.63
2022-08-24T03:55:36.619Z,59.65
2022-08-24T03:56:39.508Z,55.55
2022-08-24T03:57:41.604Z,57.90
2022-08-24T03:58:44.443Z,58.10
2022-08-24T03:59:47.474Z,55.20
2022-08-24T04:00:50.284Z,50.72
2022-08-24T04:01:56.656Z,50.45
2022-08-24T04:03:00.622Z,44.30
2022-08-24T04:04:05.479Z,56.33
2022-08-24T04:05:12.496Z,52.33
2022-08-24T04:06:18.383Z,56.28
2022-08-24T04:07:28.014Z,48.08
2022-08-24T04:08:32.678Z,46.60
2022-08-24T04:09:35.347Z,44.60
2022-08-24T04:10:38.550Z,50.10
2022-08-24T04:11:41.636Z,46.10
2022-08-24T04:12:45.153Z,45.75
2022-08-24T04:13:52.500Z,43.42
2022-08-24T04:14:57.856Z,46.90
2022-08-24T04:16:07.226Z,39.45
2022-08-24T04:17:14.439Z,37.35
2022-08-24T04:18:20.161Z,37.78
2022-08-24T04:19:22.932Z,37.75
2022-08-24T04:20:26.296Z,41.47
2022-08-24T04:21:31.578Z,40.30
2022-08-24T04:22:38.050Z,38.85
2022-08-24T04:23:47.206Z,36.22
2022-08-24T04:24:52.314Z,37.83
2022-08-24T04:26:04.454Z,37.47
2022-08-24T04:27:06.815Z,35.28
2022-08-24T04:28:09.483Z,38.78
2022-08-24T04:29:17.741Z,39.75
2022-08-24T04:30:28.984Z,46.97
2022-08-24T04:31:40.658Z,38.10
2022-08-24T04:32:43.221Z,33.42
2022-08-24T04:33:49.909Z,38.78
2022-08-24T04:34:58.261Z,38.22
2022-08-24T04:36:02.821Z,36.80
2022-08-24T04:37:11.331Z,35.75
2022-08-24T04:38:16.442Z,34.20
2022-08-24T04:39:28.542Z,38.05
2022-08-24T04:41:00.202Z,34.72
2022-08-24T04:42:03.732Z,60.10
2022-08-24T04:43:11.736Z,34.72
2022-08-24T04:44:14.676Z,35.53
2022-08-24T04:45:16.903Z,35.78
2022-08-24T04:46:20.220Z,32.78
2022-08-24T04:47:23.023Z,36.17
2022-08-24T04:48:25.330Z,34.03
2022-08-24T04:49:27.751Z,35.13
2022-08-24T04:50:31.088Z,35.13
2022-08-24T04:51:36.570Z,34.28
2022-08-24T04:52:39.847Z,33.85
2022-08-24T04:53:42.829Z,41.42
2022-08-24T04:54:45.578Z,38.50
2022-08-24T04:55:55.658Z,39.08
2022-08-24T04:56:59.851Z,48.42
2022-08-24T04:58:02.035Z,45.35
2022-08-24T04:59:06.009Z,35.53
2022-08-24T05:00:35.557Z,39.42
2022-08-24T05:01:48.635Z,41.63
2022-08-24T05:02:55.635Z,42.65
2022-08-24T05:03:59.647Z,37.00
2022-08-24T05:05:03.932Z,44.13
2022-08-24T05:06:15.278Z,41.63
2022-08-24T05:07:18.629Z,43.72
2022-08-24T05:08:21.203Z,43.67
2022-08-24T05:09:24.256Z,40.15
2022-08-24T05:10:33.826Z,44.45
2022-08-24T05:11:42.539Z,42.00
2022-08-24T05:12:55.294Z,43.42
2022-08-24T05:13:59.748Z,50.72
2022-08-24T05:15:03.552Z,48.90
2022-08-24T05:16:24.479Z,46.60
2022-08-24T05:17:31.577Z,45.15
2022-08-24T05:18:35.458Z,42.42
2022-08-24T05:19:39.602Z,39.60
2022-08-24T05:20:47.142Z,42.78
2022-08-24T05:21:50.492Z,46.75
2022-08-24T05:22:56.315Z,38.83
2022-08-24T05:24:01.009Z,39.40
2022-08-24T05:25:07.357Z,40.83
2022-08-24T05:26:16.634Z,44.47
2022-08-24T05:27:19.771Z,37.33
2022-08-24T05:28:27.432Z,45.22
2022-08-24T05:29:36.014Z,37.22
2022-08-24T05:30:42.679Z,40.08
2022-08-24T05:31:46.509Z,41.53
2022-08-24T05:32:49.897Z,40.67
2022-08-24T05:33:53.482Z,38.40
2022-08-24T05:34:56.259Z,39.20
2022-08-24T05:35:59.137Z,38.00
2022-08-24T05:37:01.360Z,36.72
2022-08-24T05:38:23.882Z,35.17
2022-08-24T05:39:26.526Z,31.27
2022-08-24T05:40:33.394Z,39.35
2022-08-24T05:41:46.849Z,36.05
2022-08-24T05:42:57.415Z,38.35
2022-08-24T05:43:59.632Z,38.00
2022-08-24T05:45:17.021Z,32.90
2022-08-24T05:46:21.078Z,40.28
2022-08-24T05:47:23.451Z,30.30
2022-08-24T05:48:27.441Z,33.60
2022-08-24T05:49:53.865Z,33.88
2022-08-24T05:50:57.470Z,31.77
2022-08-24T05:52:04.236Z,31.88
2022-08-24T05:53:06.617Z,31.88
2022-08-24T05:54:11.545Z,31.73
2022-08-24T05:55:42.522Z,28.25
2022-08-24T05:56:45.764Z,32.97
2022-08-24T05:57:47.854Z,32.58
2022-08-24T05:59:58.523Z,32.22
2022-08-24T06:01:10.666Z,31.40
2022-08-24T06:02:13.492Z,27.52
2022-08-24T06:03:17.235Z,28.55
2022-08-24T06:04:25.190Z,30.67
2022-08-24T06:05:28.563Z,27.05
2022-08-24T06:06:32.496Z,26.30
2022-08-24T06:07:34.674Z,28.35
2022-08-24T06:08:41.454Z,24.48
2022-08-24T06:09:45.939Z,30.67
2022-08-24T06:10:48.299Z,29.73
2022-08-24T06:11:50.892Z,38.50
2022-08-24T06:12:53.823Z,28.27
2022-08-24T06:14:00.290Z,32.88
2022-08-24T06:15:06.248Z,29.10
2022-08-24T06:16:21.273Z,28.80
2022-08-24T06:17:25.098Z,25.73
2022-08-24T06:18:27.443Z,31.27
2022-08-24T06:19:30.283Z,23.85
2022-08-24T06:20:39.238Z,25.65
2022-08-24T06:21:42.239Z,31.13
2022-08-24T06:22:44.699Z,24.48
2022-08-24T06:23:47.335Z,27.02
2022-08-24T06:25:08.246Z,27.67
2022-08-24T06:26:31.514Z,28.10
2022-08-24T06:27:34.346Z,25.70
2022-08-24T06:28:39.872Z,25.55
2022-08-24T06:29:41.945Z,27.02
2022-08-24T06:31:07.815Z,33.50
2022-08-24T06:32:11.876Z,31.92
2022-08-24T06:33:13.972Z,27.13
2022-08-24T06:34:19.609Z,26.85
2022-08-24T06:35:23.335Z,24.02
2022-08-24T06:36:25.936Z,25.50
2022-08-24T06:37:29.448Z,27.05
2022-08-24T06:38:32.436Z,20.75
2022-08-24T06:39:35.144Z,23.58
2022-08-24T06:40:38.093Z,23.33
2022-08-24T06:41:41.532Z,22.83
2022-08-24T06:42:47.540Z,23.88
2022-08-24T06:43:59.332Z,22.85
2022-08-24T06:45:18.032Z,22.85
2022-08-24T06:46:24.954Z,22.42
2022-08-24T06:47:29.200Z,21.73
2022-08-24T06:48:35.520Z,20.17
2022-08-24T06:49:38.922Z,22.33
2022-08-24T06:50:41.160Z,24.77
2022-08-24T06:51:45.473Z,17.45
2022-08-24T06:52:50.827Z,18.50
2022-08-24T06:53:56.263Z,20.45
2022-08-24T06:54:59.305Z,16.52
2022-08-24T06:56:01.573Z,19.25
2022-08-24T06:57:10.406Z,20.85
2022-08-24T06:58:14.811Z,20.60
2022-08-24T06:59:17.060Z,19.08
2022-08-24T07:00:19.925Z,18.52
2022-08-24T07:01:27.624Z,15.15
2022-08-24T07:02:34.153Z,19.55
2022-08-24T07:03:36.382Z,17.92
2022-08-24T07:04:54.560Z,16.15
2022-08-24T07:06:15.728Z,16.45
2022-08-24T07:07:18.640Z,19.35
2022-08-24T07:08:21.637Z,15.00
2022-08-24T07:09:27.544Z,16.85
2022-08-24T07:10:30.667Z,13.55
2022-08-24T07:11:35.221Z,18.65
2022-08-24T07:12:37.674Z,16.05
2022-08-24T07:13:40.083Z,13.93
2022-08-24T07:14:43.466Z,15.30
2022-08-24T07:15:46.236Z,13.40
2022-08-24T07:16:49.371Z,17.25
2022-08-24T07:17:54.728Z,18.02
2022-08-24T07:18:58.387Z,14.80
2022-08-24T07:20:02.587Z,17.73
2022-08-24T07:21:23.710Z,12.57
2022-08-24T07:22:27.127Z,15.88
2022-08-24T07:23:41.216Z,17.65
2022-08-24T07:24:48.961Z,13.02
2022-08-24T07:25:56.097Z,12.02
2022-08-24T07:27:01.360Z,12.50
2022-08-24T07:28:09.386Z,14.60
2022-08-24T07:29:45.942Z,17.38
2022-08-24T07:30:42.711Z,19.42
2022-08-24T07:31:46.303Z,12.75
2022-08-24T07:33:09.396Z,16.33
2022-08-24T07:34:13.387Z,15.30
2022-08-24T07:35:18.494Z,15.30
2022-08-24T07:36:22.478Z,17.73
2022-08-24T07:37:40.748Z,16.48
2022-08-24T07:38:43.827Z,17.63
2022-08-24T07:39:46.479Z,15.80
2022-08-24T07:41:14.730Z,17.27
2022-08-24T07:42:25.360Z,14.52
2022-08-24T07:43:32.923Z,15.07
2022-08-24T07:44:36.036Z,16.08
2022-08-24T07:45:42.384Z,16.33
2022-08-24T07:46:45.522Z,14.55
2022-08-24T07:47:55.392Z,16.77
2022-08-24T07:49:33.052Z,15.10
2022-08-24T07:50:40.113Z,16.58
2022-08-24T07:51:46.704Z,12.60
2022-08-24T07:52:49.465Z,17.27
2022-08-24T07:53:53.819Z,11.95
2022-08-24T07:55:02.546Z,12.80
2022-08-24T07:56:06.024Z,14.65
2022-08-24T07:57:12.285Z,12.82
2022-08-24T07:58:14.440Z,11.68
2022-08-24T07:59:18.428Z,12.90
2022-08-24T08:00:22.398Z,13.88
2022-08-24T08:01:33.803Z,10.98
2022-08-24T08:02:38.042Z,11.80
2022-08-24T08:03:40.778Z,15.02
2022-08-24T08:04:43.396Z,10.05
2022-08-24T08:05:49.728Z,17.23
2022-08-24T08:07:59.211Z,9.93
2022-08-24T08:09:05.522Z,11.32
2022-08-24T08:10:09.446Z,10.60
2022-08-24T08:11:13.782Z,8.55
2022-08-24T08:12:16.472Z,10.27
2022-08-24T08:13:29.827Z,11.88
2022-08-24T08:14:32.728Z,14.30
2022-08-24T08:15:37.538Z,9.05
2022-08-24T08:16:43.242Z,6.07
2022-08-24T08:17:46.391Z,9.15
2022-08-24T08:19:11.297Z,11.63
2022-08-24T08:20:18.797Z,9.68
2022-08-24T08:21:40.469Z,12.03
2022-08-24T08:23:02.806Z,10.25
2022-08-24T08:24:16.937Z,10.82
2022-08-24T08:25:27.542Z,9.27
2022-08-24T08:26:29.897Z,9.07
2022-08-24T08:27:41.011Z,6.28
2022-08-24T08:28:44.098Z,9.40
2022-08-24T08:29:46.230Z,8.75
2022-08-24T08:30:49.524Z,5.53
2022-08-24T08:31:52.424Z,9.85
2022-08-24T08:32:55.395Z,7.40
2022-08-24T08:33:57.724Z,7.85
2022-08-24T08:35:02.408Z,6.45
2022-08-24T08:36:10.958Z,8.10
2022-08-24T08:37:19.935Z,9.50
2022-08-24T08:38:22.647Z,10.75
2022-08-24T08:39:26.430Z,8.55
2022-08-24T08:41:00.493Z,11.65
2022-08-24T08:42:21.530Z,8.70
2022-08-24T08:43:38.547Z,9.43
2022-08-24T08:44:49.963Z,11.27
2022-08-24T08:46:07.897Z,7.68
2022-08-24T08:47:50.098Z,8.55
2022-08-24T08:49:20.506Z,8.43
2022-08-24T08:50:32.293Z,6.90
2022-08-24T08:51:49.663Z,5.68
2022-08-24T08:53:15.795Z,9.10
2022-08-24T08:54:22.651Z,7.88
2022-08-24T08:55:40.064Z,10.27
2022-08-24T08:57:05.580Z,7.80
2022-08-24T08:58:43.671Z,9.75
2022-08-24T09:00:33.166Z,12.43
2022-08-24T09:02:07.580Z,8.77
2022-08-24T09:03:39.679Z,12.75
2022-08-24T09:05:00.477Z,5.38
2022-08-24T09:06:23.817Z,8.40
2022-08-24T09:07:55.002Z,7.20
2022-08-24T09:09:22.338Z,9.52
2022-08-24T09:10:27.584Z,8.98
2022-08-24T09:11:56.716Z,10.55
2022-08-24T09:13:12.791Z,8.13
2022-08-24T09:15:02.856Z,11.80
2022-08-24T09:16:41.508Z,10.05
2022-08-24T09:17:53.182Z,7.80
2022-08-24T09:19:13.821Z,6.60
2022-08-24T09:20:57.850Z,8.15
2022-08-24T09:22:17.242Z,7.88
2022-08-24T09:23:44.467Z,8.38
2022-08-24T09:24:52.751Z,7.88
2022-08-24T09:26:30.084Z,6.30
2022-08-24T09:27:51.400Z,10.35
2022-08-24T09:29:13.720Z,10.27
2022-08-24T09:30:21.215Z,10.40
2022-08-24T09:31:29.317Z,8.38
2022-08-24T09:32:51.114Z,11.52
2022-08-24T09:34:27.064Z,7.90
2022-08-24T09:35:54.065Z,8.13
2022-08-24T09:37:05.195Z,7.40
2022-08-24T09:38:39.915Z,7.72
2022-08-24T09:40:00.276Z,14.55
2022-08-24T09:41:19.115Z,9.02
2022-08-24T09:42:26.937Z,4.55
2022-08-24T09:43:54.064Z,6.30
2022-08-24T09:45:25.152Z,6.00
2022-08-24T09:47:04.933Z,10.15
2022-08-24T09:48:25.074Z,6.55
2022-08-24T09:50:00.779Z,9.80
2022-08-24T09:51:37.289Z,7.97
2022-08-24T09:53:06.275Z,9.88
2022-08-24T09:54:19.289Z,7.05
2022-08-24T09:55:59.794Z,7.75
2022-08-24T09:57:44.325Z,5.93
2022-08-24T09:59:20.330Z,7.20
2022-08-24T10:00:26.967Z,9.05
2022-08-24T10:01:32.848Z,12.00
2022-08-24T10:02:41.547Z,10.00
2022-08-24T10:03:44.358Z,8.27
2022-08-24T10:04:57.709Z,9.38
2022-08-24T10:06:09.411Z,8.00
2022-08-24T10:07:43.265Z,8.73
2022-08-24T10:09:19.293Z,7.32
2022-08-24T10:10:41.431Z,5.32
2022-08-24T10:11:56.347Z,8.02
2022-08-24T10:13:04.647Z,6.25
2022-08-24T10:14:13.410Z,6.88
2022-08-24T10:15:22.637Z,5.53
2022-08-24T10:17:06.286Z,8.00
2022-08-24T10:18:32.281Z,9.30
2022-08-24T10:19:46.340Z,9.18
2022-08-24T10:21:03.218Z,5.80
2022-08-24T10:22:20.810Z,6.93
2022-08-24T10:23:23.003Z,9.90
2022-08-24T10:24:40.114Z,6.30
2022-08-24T10:26:08.184Z,7.60
2022-08-24T10:27:22.608Z,9.68
2022-08-24T10:28:44.997Z,6.45
2022-08-24T10:30:25.992Z,8.55
2022-08-24T10:31:39.346Z,6.90
2022-08-24T10:33:00.298Z,6.22
2022-08-24T10:34:23.255Z,7.85
2022-08-24T10:35:35.317Z,7.40
2022-08-24T10:37:18.003Z,10.38
2022-08-24T10:38:53.635Z,6.68
2022-08-24T10:40:28.637Z,9.18
2022-08-24T10:41:55.477Z,7.35
2022-08-24T10:43:34.389Z,6.72
2022-08-24T10:44:50.191Z,4.50
2022-08-24T10:46:10.378Z,8.02
2022-08-24T10:47:36.933Z,4.47
2022-08-24T10:49:18.613Z,4.10
2022-08-24T10:50:31.018Z,9.55
2022-08-24T10:51:40.611Z,7.13
2022-08-24T10:52:49.028Z,10.52
2022-08-24T10:53:54.073Z,7.20
2022-08-24T10:54:56.686Z,5.47
2022-08-24T10:56:05.768Z,6.25
2022-08-24T10:57:23.052Z,8.13
2022-08-24T10:58:45.788Z,8.68
2022-08-24T11:00:22.555Z,6.38
2022-08-24T11:01:35.197Z,6.82
2022-08-24T11:02:39.639Z,8.43
2022-08-24T11:03:58.970Z,10.43
2022-08-24T11:05:10.406Z,7.15
2022-08-24T11:06:17.767Z,13.77
2022-08-24T11:07:22.213Z,9.00
2022-08-24T11:08:29.603Z,7.70
2022-08-24T11:09:45.355Z,7.47
2022-08-24T11:11:07.566Z,9.23
2022-08-24T11:12:38.611Z,6.15
2022-08-24T11:13:54.461Z,7.25
2022-08-24T11:15:00.680Z,5.25
2022-08-24T11:16:04.311Z,6.88
2022-08-24T11:17:24.517Z,4.43
2022-08-24T11:18:27.313Z,5.57
2022-08-24T11:19:35.478Z,9.07
2022-08-24T11:20:43.405Z,6.18
2022-08-24T11:21:49.658Z,5.55
2022-08-24T11:23:07.052Z,7.27
2022-08-24T11:24:28.309Z,8.20
2022-08-24T11:25:33.277Z,5.20
2022-08-24T11:27:02.857Z,9.05
2022-08-24T11:28:29.700Z,8.40
2022-08-24T11:29:50.088Z,7.68
2022-08-24T11:30:52.133Z,9.10
2022-08-24T11:31:54.397Z,6.80
2022-08-24T11:32:59.845Z,6.93
2022-08-24T11:34:10.861Z,6.40
2022-08-24T11:35:18.814Z,9.65
2022-08-24T11:36:26.138Z,8.32
2022-08-24T11:37:39.883Z,5.40
2022-08-24T11:38:45.681Z,5.80
2022-08-24T11:39:48.109Z,6.07
2022-08-24T11:40:52.628Z,9.27
2022-08-24T11:42:33.081Z,7.03
2022-08-24T11:43:49.866Z,11.15
2022-08-24T11:45:32.462Z,7.03
2022-08-24T11:46:34.711Z,7.93
2022-08-24T11:48:00.145Z,5.60
2022-08-24T11:49:13.688Z,8.45
2022-08-24T11:50:36.207Z,5.72
2022-08-24T11:51:55.494Z,6.47
2022-08-24T11:53:12.939Z,6.53
2022-08-24T11:54:27.403Z,4.90
2022-08-24T11:55:46.708Z,4.75
2022-08-24T11:57:15.269Z,7.90
2022-08-24T11:58:17.548Z,4.85
2022-08-24T11:59:29.115Z,6.00
2022-08-24T12:00:47.460Z,6.25
2022-08-24T12:01:57.794Z,9.05
2022-08-24T12:03:12.437Z,4.63
2022-08-24T12:04:21.001Z,4.63
2022-08-24T12:05:40.778Z,4.05
2022-08-24T12:07:13.748Z,9.07
2022-08-24T12:08:27.959Z,5.82
2022-08-24T12:09:47.376Z,3.33
2022-08-24T12:11:23.809Z,5.65
2022-08-24T12:12:46.655Z,6.95
2022-08-24T12:13:53.216Z,4.38
2022-08-24T12:15:12.378Z,4.70
2022-08-24T12:16:35.918Z,5.75
2022-08-24T12:17:56.237Z,5.97
2022-08-24T12:19:02.967Z,7.40
2022-08-24T12:20:27.657Z,6.88
2022-08-24T12:21:32.892Z,6.45
2022-08-24T12:22:36.454Z,5.63
2022-08-24T12:23:43.991Z,4.93
2022-08-24T12:24:49.686Z,4.68
2022-08-24T12:26:02.664Z,8.77
2022-08-24T12:27:18.429Z,6.75
2022-08-24T12:28:29.669Z,4.82
2022-08-24T12:29:40.995Z,5.85
2022-08-24T12:30:43.541Z,6.38
2022-08-24T12:32:11.635Z,9.15
2022-08-24T12:34:49.719Z,4.68
2022-08-24T12:35:59.006Z,6.03
2022-08-24T12:37:16.033Z,9.27
2022-08-24T12:38:36.033Z,10.48
2022-08-24T12:40:03.116Z,7.50
2022-08-24T12:41:33.521Z,4.72
2022-08-24T12:43:01.213Z,4.60
2022-08-24T12:44:13.228Z,3.63
2022-08-24T12:45:17.646Z,7.13
2022-08-24T12:46:27.199Z,6.40
2022-08-24T12:47:37.038Z,8.60
2022-08-24T12:49:28.017Z,3.92
2022-08-24T12:50:54.535Z,6.65
2022-08-24T12:52:24.263Z,8.18
2022-08-24T12:53:42.231Z,6.60
2022-08-24T12:55:06.255Z,5.63
2022-08-24T12:56:20.509Z,7.63
2022-08-24T12:57:51.851Z,6.88
2022-08-24T12:59:17.526Z,7.20
2022-08-24T13:00:27.308Z,6.78
2022-08-24T13:01:34.179Z,7.38
2022-08-24T13:02:45.127Z,6.80
2022-08-24T13:04:07.224Z,6.57
2022-08-24T13:05:15.674Z,8.90
2022-08-24T13:06:38.430Z,8.43
2022-08-24T13:07:46.835Z,7.43
2022-08-24T13:08:51.514Z,6.00
2022-08-24T13:09:53.550Z,9.50
2022-08-24T13:11:06.276Z,11.65
2022-08-24T13:12:42.095Z,5.05
2022-08-24T13:13:59.436Z,10.60
2022-08-24T13:15:23.682Z,8.10
2022-08-24T13:17:03.970Z,8.95
2022-08-24T13:18:09.716Z,7.13
2022-08-24T13:19:15.465Z,6.00
2022-08-24T13:20:26.104Z,5.90
2022-08-24T13:21:39.319Z,7.68
2022-08-24T13:23:00.222Z,6.00
2022-08-24T13:24:30.663Z,7.10
2022-08-24T13:25:49.948Z,7.15
2022-08-24T13:26:56.673Z,6.78
2022-08-24T13:28:12.393Z,11.57
2022-08-24T13:29:16.747Z,8.23
2022-08-24T13:30:23.791Z,7.47
2022-08-24T13:31:43.675Z,6.68
2022-08-24T13:33:00.971Z,10.60
2022-08-24T13:34:06.385Z,7.28
2022-08-24T13:35:30.917Z,5.70
2022-08-24T13:37:08.815Z,10.73
2022-08-24T13:38:25.086Z,11.00
2022-08-24T13:39:41.856Z,7.38
2022-08-24T13:40:52.836Z,6.57
2022-08-24T13:42:29.922Z,5.03
2022-08-24T13:43:59.743Z,10.48
2022-08-24T13:45:23.165Z,6.75
2022-08-24T13:47:11.980Z,6.07
2022-08-24T13:48:42.768Z,3.70
2022-08-24T13:50:03.254Z,6.57
2022-08-24T13:51:35.761Z,4.15
2022-08-24T13:53:19.616Z,5.07
2022-08-24T13:54:42.235Z,7.80
2022-08-24T13:56:09.966Z,8.43
2022-08-24T13:57:22.227Z,8.48
2022-08-24T13:58:47.319Z,10.38
2022-08-24T14:00:27.019Z,8.57
2022-08-24T14:02:16.453Z,8.27
2022-08-24T14:03:37.150Z,8.25
2022-08-24T14:05:07.043Z,8.15
2022-08-24T14:06:41.292Z,5.25
2022-08-24T14:08:14.118Z,6.45
2022-08-24T14:09:39.605Z,4.55
2022-08-24T14:11:15.184Z,5.55
2022-08-24T14:12:34.956Z,9.05
2022-08-24T14:13:36.974Z,7.38
2022-08-24T14:14:57.050Z,9.27
2022-08-24T14:16:33.004Z,6.20
2022-08-24T14:17:55.494Z,8.20
2022-08-24T14:19:19.505Z,9.23
2022-08-24T14:20:58.773Z,11.07
2022-08-24T14:22:30.273Z,11.20
2022-08-24T14:23:47.923Z,5.60
2022-08-24T14:25:12.150Z,6.70
2022-08-24T14:26:42.184Z,10.15
2022-08-24T14:27:47.713Z,9.10
2022-08-24T14:28:50.532Z,6.20
2022-08-24T14:29:53.336Z,7.25
2022-08-24T14:31:28.676Z,9.25
2022-08-24T14:32:31.310Z,8.00
2022-08-24T14:33:44.622Z,6.25
2022-08-24T14:35:14.747Z,12.68
2022-08-24T14:36:42.260Z,6.88
2022-08-24T14:38:01.823Z,9.13
2022-08-24T14:39:13.601Z,8.18
2022-08-24T14:40:34.864Z,11.50
2022-08-24T14:41:54.612Z,8.30
2022-08-24T14:44:17.672Z,12.93
2022-08-24T14:45:53.218Z,8.73
2022-08-24T14:47:14.393Z,7.57
2022-08-24T14:48:36.506Z,10.80
2022-08-24T14:50:17.442Z,10.85
2022-08-24T14:51:46.231Z,6.28
2022-08-24T14:53:21.928Z,7.63
2022-08-24T14:54:39.121Z,8.57
2022-08-24T14:56:08.295Z,8.32
2022-08-24T14:57:56.886Z,8.88
2022-08-24T14:59:11.991Z,12.15
2022-08-24T15:00:14.429Z,11.05
2022-08-24T15:01:19.254Z,10.40
2022-08-24T15:02:37.630Z,6.85
2022-08-24T15:04:12.366Z,8.15
2022-08-24T15:05:23.643Z,11.60
2022-08-24T15:06:37.112Z,7.82
2022-08-24T15:07:39.399Z,7.07
2022-08-24T15:08:43.465Z,9.85
2022-08-24T15:09:46.637Z,5.88
2022-08-24T15:10:59.753Z,8.00
2022-08-24T15:12:30.975Z,7.68
2022-08-24T15:13:54.250Z,6.13
2022-08-24T15:15:07.423Z,5.13
2022-08-24T15:16:14.872Z,10.30
2022-08-24T15:17:22.083Z,15.23
2022-08-24T15:18:36.851Z,22.65
2022-08-24T15:20:03.671Z,25.92
2022-08-24T15:21:22.442Z,29.95
2022-08-24T15:23:42.917Z,10.55
2022-08-24T15:24:52.887Z,8.52
2022-08-24T15:26:14.072Z,11.73
2022-08-24T15:27:43.091Z,10.85
2022-08-24T15:30:02.542Z,8.75
2022-08-24T15:31:13.842Z,11.52
2022-08-24T15:32:17.087Z,12.55
2022-08-24T15:33:20.525Z,12.13
2022-08-24T15:34:43.294Z,11.15
2022-08-24T15:35:49.027Z,10.00
2022-08-24T15:37:01.740Z,7.28
2022-08-24T15:38:34.183Z,12.52